sensor_id;sensor_type;location;lat;lon;timestamp;P1;durP1;ratioP1;P2;durP2;ratioP2
20090;SDS011;10205;49.678;6.560;2023-07-20T00:00:53;1.58;;;1.10;;
20090;SDS011;10205;49.678;6.560;2023-07-20T00:03:20;2.60;;;1.20;;
20090;SDS011;10205;49.678;6.560;2023-07-20T00:05:51;1.25;;;1.15;;
20090;SDS011;10205;49.678;6.560;2023-07-20T00:08:19;1.73;;;1.08;;
20090;SDS011;10205;49.678;6.560;2023-07-20T00:10:46;0.95;;;0.90;;
20090;SDS011;10205;49.678;6.560;2023-07-20T00:13:13;1.33;;;1.23;;
20090;SDS011;10205;49.678;6.560;2023-07-20T00:15:44;1.50;;;1.25;;
20090;SDS011;10205;49.678;6.560;2023-07-20T00:18:11;1.42;;;1.30;;
20090;SDS011;10205;49.678;6.560;2023-07-20T00:20:38;0.88;;;0.82;;
20090;SDS011;10205;49.678;6.560;2023-07-20T00:23:07;2.42;;;1.08;;
20090;SDS011;10205;49.678;6.560;2023-07-20T00:25:34;3.63;;;1.27;;
20090;SDS011;10205;49.678;6.560;2023-07-20T00:28:02;1.88;;;1.30;;
20090;SDS011;10205;49.678;6.560;2023-07-20T00:30:29;2.25;;;1.20;;
20090;SDS011;10205;49.678;6.560;2023-07-20T00:32:57;1.90;;;1.17;;
20090;SDS011;10205;49.678;6.560;2023-07-20T00:35:24;1.40;;;1.17;;
20090;SDS011;10205;49.678;6.560;2023-07-20T00:37:51;1.33;;;1.20;;
20090;SDS011;10205;49.678;6.560;2023-07-20T00:40:20;1.63;;;1.30;;
20090;SDS011;10205;49.678;6.560;2023-07-20T00:42:48;2.45;;;1.52;;
20090;SDS011;10205;49.678;6.560;2023-07-20T00:45:15;1.45;;;0.88;;
20090;SDS011;10205;49.678;6.560;2023-07-20T00:47:49;3.50;;;1.02;;
20090;SDS011;10205;49.678;6.560;2023-07-20T00:50:16;1.60;;;1.30;;
20090;SDS011;10205;49.678;6.560;2023-07-20T00:52:43;1.20;;;1.10;;
20090;SDS011;10205;49.678;6.560;2023-07-20T00:55:11;2.38;;;1.00;;
20090;SDS011;10205;49.678;6.560;2023-07-20T00:57:40;1.40;;;1.10;;
20090;SDS011;10205;49.678;6.560;2023-07-20T01:00:08;1.58;;;1.00;;
20090;SDS011;10205;49.678;6.560;2023-07-20T01:02:36;1.33;;;1.23;;
20090;SDS011;10205;49.678;6.560;2023-07-20T01:05:04;1.48;;;1.33;;
20090;SDS011;10205;49.678;6.560;2023-07-20T01:07:34;1.20;;;1.10;;
20090;SDS011;10205;49.678;6.560;2023-07-20T01:10:06;1.23;;;1.02;;
20090;SDS011;10205;49.678;6.560;2023-07-20T01:12:42;1.27;;;0.80;;
20090;SDS011;10205;49.678;6.560;2023-07-20T01:15:13;2.25;;;1.20;;
20090;SDS011;10205;49.678;6.560;2023-07-20T01:17:41;1.27;;;1.10;;
20090;SDS011;10205;49.678;6.560;2023-07-20T01:20:09;1.52;;;1.20;;
20090;SDS011;10205;49.678;6.560;2023-07-20T01:22:47;2.63;;;1.20;;
20090;SDS011;10205;49.678;6.560;2023-07-20T01:26:10;2.45;;;1.50;;
20090;SDS011;10205;49.678;6.560;2023-07-20T01:29:06;1.20;;;1.00;;
20090;SDS011;10205;49.678;6.560;2023-07-20T01:31:51;1.90;;;1.20;;
20090;SDS011;10205;49.678;6.560;2023-07-20T01:34:21;1.13;;;1.02;;
20090;SDS011;10205;49.678;6.560;2023-07-20T01:36:50;1.65;;;1.10;;
20090;SDS011;10205;49.678;6.560;2023-07-20T01:39:21;1.30;;;1.00;;
20090;SDS011;10205;49.678;6.560;2023-07-20T01:41:49;1.15;;;1.05;;
20090;SDS011;10205;49.678;6.560;2023-07-20T01:44:17;3.80;;;1.20;;
20090;SDS011;10205;49.678;6.560;2023-07-20T01:46:44;2.20;;;1.20;;
20090;SDS011;10205;49.678;6.560;2023-07-20T01:49:13;1.88;;;1.10;;
20090;SDS011;10205;49.678;6.560;2023-07-20T01:51:40;2.08;;;1.13;;
20090;SDS011;10205;49.678;6.560;2023-07-20T01:54:08;1.17;;;1.08;;
20090;SDS011;10205;49.678;6.560;2023-07-20T01:56:35;1.85;;;1.40;;
20090;SDS011;10205;49.678;6.560;2023-07-20T01:59:02;2.05;;;0.98;;
20090;SDS011;10205;49.678;6.560;2023-07-20T02:01:30;1.40;;;1.20;;
20090;SDS011;10205;49.678;6.560;2023-07-20T02:03:57;1.15;;;1.02;;
20090;SDS011;10205;49.678;6.560;2023-07-20T02:06:26;1.52;;;1.13;;
20090;SDS011;10205;49.678;6.560;2023-07-20T02:08:53;1.15;;;1.05;;
20090;SDS011;10205;49.678;6.560;2023-07-20T02:11:21;1.40;;;1.10;;
20090;SDS011;10205;49.678;6.560;2023-07-20T02:13:48;1.67;;;1.58;;
20090;SDS011;10205;49.678;6.560;2023-07-20T02:16:15;1.55;;;1.05;;
20090;SDS011;10205;49.678;6.560;2023-07-20T02:18:43;1.63;;;1.40;;
20090;SDS011;10205;49.678;6.560;2023-07-20T02:21:10;1.55;;;1.10;;
20090;SDS011;10205;49.678;6.560;2023-07-20T02:23:38;1.33;;;1.15;;
20090;SDS011;10205;49.678;6.560;2023-07-20T02:26:06;1.38;;;1.10;;
20090;SDS011;10205;49.678;6.560;2023-07-20T02:28:33;1.58;;;1.13;;
20090;SDS011;10205;49.678;6.560;2023-07-20T02:31:00;1.40;;;1.30;;
20090;SDS011;10205;49.678;6.560;2023-07-20T02:33:28;1.75;;;1.15;;
20090;SDS011;10205;49.678;6.560;2023-07-20T02:35:55;1.67;;;1.20;;
20090;SDS011;10205;49.678;6.560;2023-07-20T02:38:23;1.60;;;1.20;;
20090;SDS011;10205;49.678;6.560;2023-07-20T02:40:52;1.30;;;1.00;;
20090;SDS011;10205;49.678;6.560;2023-07-20T02:43:19;1.50;;;1.05;;
20090;SDS011;10205;49.678;6.560;2023-07-20T02:45:46;1.55;;;1.23;;
20090;SDS011;10205;49.678;6.560;2023-07-20T02:48:14;2.17;;;1.40;;
20090;SDS011;10205;49.678;6.560;2023-07-20T02:50:43;1.88;;;1.25;;
20090;SDS011;10205;49.678;6.560;2023-07-20T02:53:10;1.55;;;1.08;;
20090;SDS011;10205;49.678;6.560;2023-07-20T02:55:37;2.50;;;1.50;;
20090;SDS011;10205;49.678;6.560;2023-07-20T02:58:06;1.42;;;1.17;;
20090;SDS011;10205;49.678;6.560;2023-07-20T03:00:33;2.30;;;1.25;;
20090;SDS011;10205;49.678;6.560;2023-07-20T03:03:01;1.77;;;1.20;;
20090;SDS011;10205;49.678;6.560;2023-07-20T03:05:28;1.13;;;1.00;;
20090;SDS011;10205;49.678;6.560;2023-07-20T03:07:55;1.90;;;1.17;;
20090;SDS011;10205;49.678;6.560;2023-07-20T03:10:28;1.50;;;1.15;;
20090;SDS011;10205;49.678;6.560;2023-07-20T03:12:55;2.38;;;1.10;;
20090;SDS011;10205;49.678;6.560;2023-07-20T03:15:24;1.20;;;1.10;;
20090;SDS011;10205;49.678;6.560;2023-07-20T03:17:51;1.42;;;1.10;;
20090;SDS011;10205;49.678;6.560;2023-07-20T03:20:19;1.20;;;1.02;;
20090;SDS011;10205;49.678;6.560;2023-07-20T03:22:49;1.67;;;1.13;;
20090;SDS011;10205;49.678;6.560;2023-07-20T03:25:16;1.20;;;1.10;;
20090;SDS011;10205;49.678;6.560;2023-07-20T03:27:44;1.10;;;1.00;;
20090;SDS011;10205;49.678;6.560;2023-07-20T03:30:12;1.20;;;1.10;;
20090;SDS011;10205;49.678;6.560;2023-07-20T03:32:41;1.45;;;1.25;;
20090;SDS011;10205;49.678;6.560;2023-07-20T03:35:08;1.85;;;1.65;;
20090;SDS011;10205;49.678;6.560;2023-07-20T03:37:36;1.70;;;1.60;;
20090;SDS011;10205;49.678;6.560;2023-07-20T03:40:03;1.25;;;1.13;;
20090;SDS011;10205;49.678;6.560;2023-07-20T03:42:32;1.60;;;1.17;;
20090;SDS011;10205;49.678;6.560;2023-07-20T03:45:00;1.70;;;1.30;;
20090;SDS011;10205;49.678;6.560;2023-07-20T03:47:28;1.58;;;1.48;;
20090;SDS011;10205;49.678;6.560;2023-07-20T03:49:56;1.95;;;1.30;;
20090;SDS011;10205;49.678;6.560;2023-07-20T03:52:24;2.28;;;1.40;;
20090;SDS011;10205;49.678;6.560;2023-07-20T03:54:51;1.35;;;1.00;;
20090;SDS011;10205;49.678;6.560;2023-07-20T03:57:18;1.73;;;1.40;;
20090;SDS011;10205;49.678;6.560;2023-07-20T03:59:45;1.52;;;1.23;;
20090;SDS011;10205;49.678;6.560;2023-07-20T04:02:13;1.30;;;1.20;;
20090;SDS011;10205;49.678;6.560;2023-07-20T04:04:41;1.35;;;1.25;;
20090;SDS011;10205;49.678;6.560;2023-07-20T04:07:09;1.58;;;0.98;;
20090;SDS011;10205;49.678;6.560;2023-07-20T04:09:37;1.48;;;1.38;;
20090;SDS011;10205;49.678;6.560;2023-07-20T04:12:04;1.60;;;1.25;;
20090;SDS011;10205;49.678;6.560;2023-07-20T04:14:32;1.40;;;1.10;;
20090;SDS011;10205;49.678;6.560;2023-07-20T04:17:00;1.17;;;1.08;;
20090;SDS011;10205;49.678;6.560;2023-07-20T04:19:27;1.20;;;1.10;;
20090;SDS011;10205;49.678;6.560;2023-07-20T04:21:54;1.20;;;1.10;;
20090;SDS011;10205;49.678;6.560;2023-07-20T04:24:23;1.52;;;1.20;;
20090;SDS011;10205;49.678;6.560;2023-07-20T04:26:51;1.38;;;1.20;;
20090;SDS011;10205;49.678;6.560;2023-07-20T04:29:19;1.63;;;1.05;;
20090;SDS011;10205;49.678;6.560;2023-07-20T04:31:46;1.40;;;1.10;;
20090;SDS011;10205;49.678;6.560;2023-07-20T04:34:13;1.90;;;1.10;;
20090;SDS011;10205;49.678;6.560;2023-07-20T04:36:40;1.63;;;1.30;;
20090;SDS011;10205;49.678;6.560;2023-07-20T04:39:09;2.33;;;1.17;;
20090;SDS011;10205;49.678;6.560;2023-07-20T04:41:38;1.45;;;1.00;;
20090;SDS011;10205;49.678;6.560;2023-07-20T04:44:05;3.88;;;1.48;;
20090;SDS011;10205;49.678;6.560;2023-07-20T04:46:32;2.22;;;1.45;;
20090;SDS011;10205;49.678;6.560;2023-07-20T04:48:59;2.08;;;1.52;;
20090;SDS011;10205;49.678;6.560;2023-07-20T04:51:27;1.40;;;1.25;;
20090;SDS011;10205;49.678;6.560;2023-07-20T04:53:55;1.90;;;1.40;;
20090;SDS011;10205;49.678;6.560;2023-07-20T04:56:22;1.52;;;1.10;;
20090;SDS011;10205;49.678;6.560;2023-07-20T04:58:51;1.73;;;1.17;;
20090;SDS011;10205;49.678;6.560;2023-07-20T05:01:19;1.30;;;1.10;;
20090;SDS011;10205;49.678;6.560;2023-07-20T05:03:46;1.63;;;1.30;;
20090;SDS011;10205;49.678;6.560;2023-07-20T05:06:13;1.50;;;1.30;;
20090;SDS011;10205;49.678;6.560;2023-07-20T05:08:40;1.63;;;1.52;;
20090;SDS011;10205;49.678;6.560;2023-07-20T05:11:08;2.25;;;1.30;;
20090;SDS011;10205;49.678;6.560;2023-07-20T05:13:35;1.17;;;1.08;;
20090;SDS011;10205;49.678;6.560;2023-07-20T05:16:04;2.53;;;1.40;;
20090;SDS011;10205;49.678;6.560;2023-07-20T05:18:31;1.38;;;1.10;;
20090;SDS011;10205;49.678;6.560;2023-07-20T05:20:58;1.67;;;1.35;;
20090;SDS011;10205;49.678;6.560;2023-07-20T05:23:26;1.30;;;1.20;;
20090;SDS011;10205;49.678;6.560;2023-07-20T05:25:54;1.25;;;1.15;;
20090;SDS011;10205;49.678;6.560;2023-07-20T05:28:21;1.30;;;1.20;;
20090;SDS011;10205;49.678;6.560;2023-07-20T05:30:49;2.45;;;1.20;;
20090;SDS011;10205;49.678;6.560;2023-07-20T05:33:19;1.80;;;1.20;;
20090;SDS011;10205;49.678;6.560;2023-07-20T05:35:46;1.20;;;1.10;;
20090;SDS011;10205;49.678;6.560;2023-07-20T05:38:14;1.23;;;0.93;;
20090;SDS011;10205;49.678;6.560;2023-07-20T05:40:42;3.60;;;1.40;;
20090;SDS011;10205;49.678;6.560;2023-07-20T05:43:12;1.85;;;1.35;;
20090;SDS011;10205;49.678;6.560;2023-07-20T05:45:41;1.30;;;1.20;;
20090;SDS011;10205;49.678;6.560;2023-07-20T05:48:08;1.75;;;1.20;;
20090;SDS011;10205;49.678;6.560;2023-07-20T05:50:37;1.88;;;1.27;;
20090;SDS011;10205;49.678;6.560;2023-07-20T05:53:08;1.63;;;1.35;;
20090;SDS011;10205;49.678;6.560;2023-07-20T05:55:35;2.15;;;1.23;;
20090;SDS011;10205;49.678;6.560;2023-07-20T05:58:04;1.40;;;1.20;;
20090;SDS011;10205;49.678;6.560;2023-07-20T06:00:31;1.05;;;0.90;;
20090;SDS011;10205;49.678;6.560;2023-07-20T06:03:00;2.15;;;1.33;;
20090;SDS011;10205;49.678;6.560;2023-07-20T06:05:29;1.40;;;1.17;;
20090;SDS011;10205;49.678;6.560;2023-07-20T06:07:58;2.60;;;1.30;;
20090;SDS011;10205;49.678;6.560;2023-07-20T06:10:26;1.60;;;1.40;;
20090;SDS011;10205;49.678;6.560;2023-07-20T06:12:53;2.55;;;1.23;;
20090;SDS011;10205;49.678;6.560;2023-07-20T06:15:24;4.03;;;1.25;;
20090;SDS011;10205;49.678;6.560;2023-07-20T06:17:53;1.63;;;1.10;;
20090;SDS011;10205;49.678;6.560;2023-07-20T06:20:23;1.70;;;1.40;;
20090;SDS011;10205;49.678;6.560;2023-07-20T06:22:51;1.88;;;1.20;;
20090;SDS011;10205;49.678;6.560;2023-07-20T06:25:19;1.17;;;1.08;;
20090;SDS011;10205;49.678;6.560;2023-07-20T06:27:48;2.13;;;1.42;;
20090;SDS011;10205;49.678;6.560;2023-07-20T06:30:16;1.10;;;1.00;;
20090;SDS011;10205;49.678;6.560;2023-07-20T06:32:44;1.38;;;1.02;;
20090;SDS011;10205;49.678;6.560;2023-07-20T06:35:11;1.77;;;1.20;;
20090;SDS011;10205;49.678;6.560;2023-07-20T06:37:38;3.85;;;1.55;;
20090;SDS011;10205;49.678;6.560;2023-07-20T06:40:06;3.15;;;1.50;;
20090;SDS011;10205;49.678;6.560;2023-07-20T06:42:36;1.73;;;1.10;;
20090;SDS011;10205;49.678;6.560;2023-07-20T06:45:04;2.30;;;1.60;;
20090;SDS011;10205;49.678;6.560;2023-07-20T06:47:32;2.95;;;1.30;;
20090;SDS011;10205;49.678;6.560;2023-07-20T06:49:59;1.83;;;1.30;;
20090;SDS011;10205;49.678;6.560;2023-07-20T06:52:27;1.38;;;1.20;;
20090;SDS011;10205;49.678;6.560;2023-07-20T06:54:54;4.75;;;1.42;;
20090;SDS011;10205;49.678;6.560;2023-07-20T06:57:21;3.40;;;1.27;;
20090;SDS011;10205;49.678;6.560;2023-07-20T06:59:50;2.45;;;1.30;;
20090;SDS011;10205;49.678;6.560;2023-07-20T07:02:18;1.77;;;1.10;;
20090;SDS011;10205;49.678;6.560;2023-07-20T07:04:46;1.77;;;1.38;;
20090;SDS011;10205;49.678;6.560;2023-07-20T07:07:14;4.13;;;1.73;;
20090;SDS011;10205;49.678;6.560;2023-07-20T07:09:41;4.07;;;1.40;;
20090;SDS011;10205;49.678;6.560;2023-07-20T07:12:09;4.25;;;1.50;;
20090;SDS011;10205;49.678;6.560;2023-07-20T07:14:36;4.82;;;1.60;;
20090;SDS011;10205;49.678;6.560;2023-07-20T07:17:05;7.20;;;1.98;;
20090;SDS011;10205;49.678;6.560;2023-07-20T07:19:32;3.10;;;1.40;;
20090;SDS011;10205;49.678;6.560;2023-07-20T07:22:01;1.40;;;1.30;;
20090;SDS011;10205;49.678;6.560;2023-07-20T07:24:29;5.88;;;1.60;;
20090;SDS011;10205;49.678;6.560;2023-07-20T07:26:58;3.28;;;1.52;;
20090;SDS011;10205;49.678;6.560;2023-07-20T07:29:26;1.75;;;1.25;;
20090;SDS011;10205;49.678;6.560;2023-07-20T07:31:53;3.55;;;1.50;;
20090;SDS011;10205;49.678;6.560;2023-07-20T07:34:22;2.15;;;1.30;;
20090;SDS011;10205;49.678;6.560;2023-07-20T07:36:50;2.55;;;1.60;;
20090;SDS011;10205;49.678;6.560;2023-07-20T07:39:17;1.70;;;1.35;;
20090;SDS011;10205;49.678;6.560;2023-07-20T07:41:44;2.85;;;1.48;;
20090;SDS011;10205;49.678;6.560;2023-07-20T07:44:11;2.75;;;1.38;;
20090;SDS011;10205;49.678;6.560;2023-07-20T07:46:39;2.50;;;1.35;;
20090;SDS011;10205;49.678;6.560;2023-07-20T07:49:06;2.38;;;1.70;;
20090;SDS011;10205;49.678;6.560;2023-07-20T07:51:35;2.85;;;1.52;;
20090;SDS011;10205;49.678;6.560;2023-07-20T07:54:02;2.58;;;1.38;;
20090;SDS011;10205;49.678;6.560;2023-07-20T07:56:30;2.42;;;1.70;;
20090;SDS011;10205;49.678;6.560;2023-07-20T07:58:57;3.22;;;1.65;;
20090;SDS011;10205;49.678;6.560;2023-07-20T08:01:24;5.03;;;1.65;;
20090;SDS011;10205;49.678;6.560;2023-07-20T08:03:52;5.65;;;1.60;;
20090;SDS011;10205;49.678;6.560;2023-07-20T08:06:19;3.10;;;1.60;;
20090;SDS011;10205;49.678;6.560;2023-07-20T08:08:48;1.55;;;1.20;;
20090;SDS011;10205;49.678;6.560;2023-07-20T08:11:15;2.75;;;1.60;;
20090;SDS011;10205;49.678;6.560;2023-07-20T08:13:43;3.22;;;1.48;;
20090;SDS011;10205;49.678;6.560;2023-07-20T08:16:10;2.20;;;1.50;;
20090;SDS011;10205;49.678;6.560;2023-07-20T08:18:37;2.00;;;1.60;;
20090;SDS011;10205;49.678;6.560;2023-07-20T08:21:05;2.35;;;1.50;;
20090;SDS011;10205;49.678;6.560;2023-07-20T08:23:36;1.77;;;1.20;;
20090;SDS011;10205;49.678;6.560;2023-07-20T08:26:05;2.00;;;1.35;;
20090;SDS011;10205;49.678;6.560;2023-07-20T08:28:32;2.67;;;1.50;;
20090;SDS011;10205;49.678;6.560;2023-07-20T08:31:00;1.38;;;1.00;;
20090;SDS011;10205;49.678;6.560;2023-07-20T08:33:29;3.13;;;1.13;;
20090;SDS011;10205;49.678;6.560;2023-07-20T08:35:58;4.93;;;1.55;;
20090;SDS011;10205;49.678;6.560;2023-07-20T08:38:26;3.47;;;1.20;;
20090;SDS011;10205;49.678;6.560;2023-07-20T08:40:54;1.92;;;1.52;;
20090;SDS011;10205;49.678;6.560;2023-07-20T08:43:22;2.08;;;1.50;;
20090;SDS011;10205;49.678;6.560;2023-07-20T08:45:51;2.97;;;1.35;;
20090;SDS011;10205;49.678;6.560;2023-07-20T08:48:22;2.75;;;1.50;;
20090;SDS011;10205;49.678;6.560;2023-07-20T08:50:51;3.08;;;1.38;;
20090;SDS011;10205;49.678;6.560;2023-07-20T08:53:19;1.90;;;1.60;;
20090;SDS011;10205;49.678;6.560;2023-07-20T08:55:48;3.13;;;1.10;;
20090;SDS011;10205;49.678;6.560;2023-07-20T08:58:17;1.83;;;1.33;;
20090;SDS011;10205;49.678;6.560;2023-07-20T09:00:46;2.45;;;1.40;;
20090;SDS011;10205;49.678;6.560;2023-07-20T09:03:17;1.92;;;1.15;;
20090;SDS011;10205;49.678;6.560;2023-07-20T09:05:45;3.28;;;1.20;;
20090;SDS011;10205;49.678;6.560;2023-07-20T09:08:12;1.92;;;1.25;;
20090;SDS011;10205;49.678;6.560;2023-07-20T09:10:40;2.95;;;1.42;;
20090;SDS011;10205;49.678;6.560;2023-07-20T09:13:07;1.67;;;1.35;;
20090;SDS011;10205;49.678;6.560;2023-07-20T09:15:34;2.17;;;1.45;;
20090;SDS011;10205;49.678;6.560;2023-07-20T09:18:03;4.03;;;1.70;;
20090;SDS011;10205;49.678;6.560;2023-07-20T09:20:31;3.78;;;1.70;;
20090;SDS011;10205;49.678;6.560;2023-07-20T09:22:59;1.42;;;1.20;;
20090;SDS011;10205;49.678;6.560;2023-07-20T09:25:31;1.70;;;1.33;;
20090;SDS011;10205;49.678;6.560;2023-07-20T09:28:01;1.63;;;1.20;;
20090;SDS011;10205;49.678;6.560;2023-07-20T09:30:29;1.83;;;1.20;;
20090;SDS011;10205;49.678;6.560;2023-07-20T09:32:57;2.00;;;1.40;;
20090;SDS011;10205;49.678;6.560;2023-07-20T09:35:26;1.65;;;1.15;;
20090;SDS011;10205;49.678;6.560;2023-07-20T09:37:54;3.15;;;1.25;;
20090;SDS011;10205;49.678;6.560;2023-07-20T09:40:25;2.50;;;1.30;;
20090;SDS011;10205;49.678;6.560;2023-07-20T09:42:53;2.38;;;1.17;;
20090;SDS011;10205;49.678;6.560;2023-07-20T09:45:27;1.60;;;1.30;;
20090;SDS011;10205;49.678;6.560;2023-07-20T09:48:02;2.08;;;1.27;;
20090;SDS011;10205;49.678;6.560;2023-07-20T09:50:33;1.70;;;0.98;;
20090;SDS011;10205;49.678;6.560;2023-07-20T09:53:00;2.28;;;1.30;;
20090;SDS011;10205;49.678;6.560;2023-07-20T09:55:29;3.60;;;1.58;;
20090;SDS011;10205;49.678;6.560;2023-07-20T09:57:56;1.75;;;1.30;;
20090;SDS011;10205;49.678;6.560;2023-07-20T10:00:25;2.45;;;1.60;;
20090;SDS011;10205;49.678;6.560;2023-07-20T10:02:52;1.40;;;1.30;;
20090;SDS011;10205;49.678;6.560;2023-07-20T10:05:22;2.50;;;1.50;;
20090;SDS011;10205;49.678;6.560;2023-07-20T10:07:55;1.23;;;1.10;;
20090;SDS011;10205;49.678;6.560;2023-07-20T10:10:23;2.47;;;1.60;;
20090;SDS011;10205;49.678;6.560;2023-07-20T10:12:51;1.40;;;1.20;;
20090;SDS011;10205;49.678;6.560;2023-07-20T10:15:20;1.13;;;1.02;;
20090;SDS011;10205;49.678;6.560;2023-07-20T10:17:57;1.60;;;1.33;;
20090;SDS011;10205;49.678;6.560;2023-07-20T10:20:31;1.45;;;1.33;;
20090;SDS011;10205;49.678;6.560;2023-07-20T10:23:04;1.92;;;1.30;;
20090;SDS011;10205;49.678;6.560;2023-07-20T10:25:32;1.65;;;1.40;;
20090;SDS011;10205;49.678;6.560;2023-07-20T10:28:03;1.77;;;1.48;;
20090;SDS011;10205;49.678;6.560;2023-07-20T10:30:32;2.00;;;1.60;;
20090;SDS011;10205;49.678;6.560;2023-07-20T10:33:00;2.38;;;1.45;;
20090;SDS011;10205;49.678;6.560;2023-07-20T10:35:29;2.47;;;1.50;;
20090;SDS011;10205;49.678;6.560;2023-07-20T10:37:59;3.80;;;1.70;;
20090;SDS011;10205;49.678;6.560;2023-07-20T10:40:38;1.50;;;1.30;;
20090;SDS011;10205;49.678;6.560;2023-07-20T10:43:06;1.88;;;1.05;;
20090;SDS011;10205;49.678;6.560;2023-07-20T10:45:48;2.15;;;1.55;;
20090;SDS011;10205;49.678;6.560;2023-07-20T10:48:18;1.35;;;1.20;;
20090;SDS011;10205;49.678;6.560;2023-07-20T10:53:36;1.50;;;1.40;;
20090;SDS011;10205;49.678;6.560;2023-07-20T10:56:12;1.30;;;1.20;;
20090;SDS011;10205;49.678;6.560;2023-07-20T10:58:41;1.55;;;1.25;;
20090;SDS011;10205;49.678;6.560;2023-07-20T11:01:13;1.30;;;1.20;;
20090;SDS011;10205;49.678;6.560;2023-07-20T11:03:42;2.22;;;1.50;;
20090;SDS011;10205;49.678;6.560;2023-07-20T11:06:31;1.50;;;1.20;;
20090;SDS011;10205;49.678;6.560;2023-07-20T11:09:04;2.13;;;1.30;;
20090;SDS011;10205;49.678;6.560;2023-07-20T11:11:37;1.60;;;1.42;;
20090;SDS011;10205;49.678;6.560;2023-07-20T11:14:06;2.13;;;1.40;;
20090;SDS011;10205;49.678;6.560;2023-07-20T11:16:36;1.38;;;1.27;;
20090;SDS011;10205;49.678;6.560;2023-07-20T11:19:13;1.30;;;1.10;;
20090;SDS011;10205;49.678;6.560;2023-07-20T11:21:43;1.85;;;1.23;;
20090;SDS011;10205;49.678;6.560;2023-07-20T11:24:12;1.80;;;1.15;;
20090;SDS011;10205;49.678;6.560;2023-07-20T11:26:45;2.13;;;1.40;;
20090;SDS011;10205;49.678;6.560;2023-07-20T11:29:15;2.83;;;1.30;;
20090;SDS011;10205;49.678;6.560;2023-07-20T11:31:44;1.60;;;1.10;;
20090;SDS011;10205;49.678;6.560;2023-07-20T11:34:13;2.55;;;1.25;;
20090;SDS011;10205;49.678;6.560;2023-07-20T11:36:42;1.45;;;1.20;;
20090;SDS011;10205;49.678;6.560;2023-07-20T11:39:11;1.73;;;1.17;;
20090;SDS011;10205;49.678;6.560;2023-07-20T11:41:46;1.55;;;1.45;;
20090;SDS011;10205;49.678;6.560;2023-07-20T11:44:15;1.40;;;1.30;;
20090;SDS011;10205;49.678;6.560;2023-07-20T11:46:43;3.47;;;1.33;;
20090;SDS011;10205;49.678;6.560;2023-07-20T11:49:11;4.00;;;1.40;;
20090;SDS011;10205;49.678;6.560;2023-07-20T11:51:39;1.08;;;0.98;;
20090;SDS011;10205;49.678;6.560;2023-07-20T11:54:08;1.30;;;1.13;;
20090;SDS011;10205;49.678;6.560;2023-07-20T11:56:36;1.42;;;1.10;;
20090;SDS011;10205;49.678;6.560;2023-07-20T11:59:10;1.23;;;1.13;;
20090;SDS011;10205;49.678;6.560;2023-07-20T12:01:38;1.92;;;1.00;;
20090;SDS011;10205;49.678;6.560;2023-07-20T12:04:05;1.45;;;1.10;;
20090;SDS011;10205;49.678;6.560;2023-07-20T12:06:32;1.67;;;1.13;;
20090;SDS011;10205;49.678;6.560;2023-07-20T12:09:00;1.27;;;1.00;;
20090;SDS011;10205;49.678;6.560;2023-07-20T12:11:31;1.45;;;0.93;;
20090;SDS011;10205;49.678;6.560;2023-07-20T12:14:00;1.10;;;1.00;;
20090;SDS011;10205;49.678;6.560;2023-07-20T12:16:30;1.27;;;1.00;;
20090;SDS011;10205;49.678;6.560;2023-07-20T12:19:01;1.17;;;1.00;;
20090;SDS011;10205;49.678;6.560;2023-07-20T12:21:29;1.10;;;1.00;;
20090;SDS011;10205;49.678;6.560;2023-07-20T12:23:58;2.30;;;0.90;;
20090;SDS011;10205;49.678;6.560;2023-07-20T12:26:25;0.90;;;0.88;;
20090;SDS011;10205;49.678;6.560;2023-07-20T12:28:55;1.00;;;1.00;;
20090;SDS011;10205;49.678;6.560;2023-07-20T12:31:24;1.58;;;0.90;;
20090;SDS011;10205;49.678;6.560;2023-07-20T12:33:54;0.93;;;0.80;;
20090;SDS011;10205;49.678;6.560;2023-07-20T12:36:21;0.73;;;0.73;;
20090;SDS011;10205;49.678;6.560;2023-07-20T12:38:49;1.92;;;1.15;;
20090;SDS011;10205;49.678;6.560;2023-07-20T12:41:16;1.20;;;1.00;;
20090;SDS011;10205;49.678;6.560;2023-07-20T12:43:44;1.70;;;1.00;;
20090;SDS011;10205;49.678;6.560;2023-07-20T12:46:12;1.00;;;0.85;;
20090;SDS011;10205;49.678;6.560;2023-07-20T12:48:40;0.90;;;0.90;;
20090;SDS011;10205;49.678;6.560;2023-07-20T12:51:10;1.48;;;0.90;;
20090;SDS011;10205;49.678;6.560;2023-07-20T12:53:37;0.75;;;0.75;;
20090;SDS011;10205;49.678;6.560;2023-07-20T12:56:05;1.17;;;0.98;;
20090;SDS011;10205;49.678;6.560;2023-07-20T12:58:32;0.95;;;0.85;;
20090;SDS011;10205;49.678;6.560;2023-07-20T13:01:00;1.15;;;0.90;;
20090;SDS011;10205;49.678;6.560;2023-07-20T13:03:27;1.13;;;0.93;;
20090;SDS011;10205;49.678;6.560;2023-07-20T13:05:55;0.70;;;0.70;;
20090;SDS011;10205;49.678;6.560;2023-07-20T13:08:24;1.17;;;1.08;;
20090;SDS011;10205;49.678;6.560;2023-07-20T13:10:52;1.05;;;0.90;;
20090;SDS011;10205;49.678;6.560;2023-07-20T13:13:19;0.80;;;0.70;;
20090;SDS011;10205;49.678;6.560;2023-07-20T13:15:46;0.85;;;0.77;;
20090;SDS011;10205;49.678;6.560;2023-07-20T13:18:16;1.23;;;1.00;;
20090;SDS011;10205;49.678;6.560;2023-07-20T13:20:44;1.10;;;1.00;;
20090;SDS011;10205;49.678;6.560;2023-07-20T13:23:11;0.90;;;0.70;;
20090;SDS011;10205;49.678;6.560;2023-07-20T13:25:40;0.90;;;0.70;;
20090;SDS011;10205;49.678;6.560;2023-07-20T13:28:07;0.88;;;0.82;;
20090;SDS011;10205;49.678;6.560;2023-07-20T13:30:34;3.90;;;0.85;;
20090;SDS011;10205;49.678;6.560;2023-07-20T13:33:02;0.85;;;0.85;;
20090;SDS011;10205;49.678;6.560;2023-07-20T13:35:29;1.00;;;0.90;;
20090;SDS011;10205;49.678;6.560;2023-07-20T13:37:56;1.20;;;0.77;;
20090;SDS011;10205;49.678;6.560;2023-07-20T13:40:23;1.40;;;0.82;;
20090;SDS011;10205;49.678;6.560;2023-07-20T13:42:52;0.88;;;0.80;;
20090;SDS011;10205;49.678;6.560;2023-07-20T13:45:19;0.80;;;0.80;;
20090;SDS011;10205;49.678;6.560;2023-07-20T13:47:47;1.58;;;1.02;;
20090;SDS011;10205;49.678;6.560;2023-07-20T13:50:14;0.95;;;0.70;;
20090;SDS011;10205;49.678;6.560;2023-07-20T13:52:42;1.50;;;0.90;;
20090;SDS011;10205;49.678;6.560;2023-07-20T13:55:09;1.58;;;0.80;;
20090;SDS011;10205;49.678;6.560;2023-07-20T13:57:36;1.00;;;0.75;;
20090;SDS011;10205;49.678;6.560;2023-07-20T14:00:05;0.90;;;0.90;;
20090;SDS011;10205;49.678;6.560;2023-07-20T14:02:36;4.20;;;0.98;;
20090;SDS011;10205;49.678;6.560;2023-07-20T14:05:03;1.05;;;0.80;;
20090;SDS011;10205;49.678;6.560;2023-07-20T14:07:31;2.20;;;0.77;;
20090;SDS011;10205;49.678;6.560;2023-07-20T14:09:59;1.20;;;0.65;;
20090;SDS011;10205;49.678;6.560;2023-07-20T14:12:26;1.23;;;0.80;;
20090;SDS011;10205;49.678;6.560;2023-07-20T14:14:53;1.33;;;0.98;;
20090;SDS011;10205;49.678;6.560;2023-07-20T14:17:22;0.77;;;0.77;;
20090;SDS011;10205;49.678;6.560;2023-07-20T14:19:50;1.38;;;0.80;;
20090;SDS011;10205;49.678;6.560;2023-07-20T14:22:19;1.25;;;0.80;;
20090;SDS011;10205;49.678;6.560;2023-07-20T14:24:46;0.95;;;0.70;;
20090;SDS011;10205;49.678;6.560;2023-07-20T14:27:14;0.80;;;0.80;;
20090;SDS011;10205;49.678;6.560;2023-07-20T14:29:41;0.90;;;0.90;;
20090;SDS011;10205;49.678;6.560;2023-07-20T14:32:08;0.70;;;0.70;;
20090;SDS011;10205;49.678;6.560;2023-07-20T14:34:37;0.65;;;0.65;;
20090;SDS011;10205;49.678;6.560;2023-07-20T14:37:06;1.38;;;0.90;;
20090;SDS011;10205;49.678;6.560;2023-07-20T14:39:33;1.15;;;0.90;;
20090;SDS011;10205;49.678;6.560;2023-07-20T14:42:00;0.80;;;0.80;;
20090;SDS011;10205;49.678;6.560;2023-07-20T14:44:28;1.95;;;1.00;;
20090;SDS011;10205;49.678;6.560;2023-07-20T14:46:56;1.55;;;1.02;;
20090;SDS011;10205;49.678;6.560;2023-07-20T14:49:23;1.42;;;0.93;;
20090;SDS011;10205;49.678;6.560;2023-07-20T14:51:53;1.45;;;0.90;;
20090;SDS011;10205;49.678;6.560;2023-07-20T14:54:21;1.67;;;0.95;;
20090;SDS011;10205;49.678;6.560;2023-07-20T14:56:51;0.98;;;0.82;;
20090;SDS011;10205;49.678;6.560;2023-07-20T14:59:18;1.33;;;0.90;;